sensor_id;sensor_type;location;lat;lon;timestamp;temperature;humidity
78571;SHT31;67861;51.966;5.672;2023-07-31T00:00:08;19.4;68.8
78571;SHT31;67861;51.966;5.672;2023-07-31T00:02:39;19.5;68.9
78571;SHT31;67861;51.966;5.672;2023-07-31T00:05:08;19.5;68.8
78571;SHT31;67861;51.966;5.672;2023-07-31T00:07:36;19.5;68.9
78571;SHT31;67861;51.966;5.672;2023-07-31T00:10:05;19.5;68.5
78571;SHT31;67861;51.966;5.672;2023-07-31T00:12:34;19.5;68.6
78571;SHT31;67861;51.966;5.672;2023-07-31T00:15:05;19.5;69.0
78571;SHT31;67861;51.966;5.672;2023-07-31T00:17:34;19.5;68.9
78571;SHT31;67861;51.966;5.672;2023-07-31T00:20:03;19.5;69.2
78571;SHT31;67861;51.966;5.672;2023-07-31T00:22:31;19.5;68.7
78571;SHT31;67861;51.966;5.672;2023-07-31T00:25:00;19.5;69.5
78571;SHT31;67861;51.966;5.672;2023-07-31T00:27:28;19.5;69.6
78571;SHT31;67861;51.966;5.672;2023-07-31T00:29:57;19.5;70.0
78571;SHT31;67861;51.966;5.672;2023-07-31T00:32:25;19.5;70.0
78571;SHT31;67861;51.966;5.672;2023-07-31T00:34:54;19.5;70.6
78571;SHT31;67861;51.966;5.672;2023-07-31T00:37:22;19.5;70.9
78571;SHT31;67861;51.966;5.672;2023-07-31T00:39:51;19.5;71.0
78571;SHT31;67861;51.966;5.672;2023-07-31T00:42:19;19.5;71.6
78571;SHT31;67861;51.966;5.672;2023-07-31T00:44:47;19.5;72.3
78571;SHT31;67861;51.966;5.672;2023-07-31T00:47:16;19.5;72.6
78571;SHT31;67861;51.966;5.672;2023-07-31T00:49:45;19.5;72.9
78571;SHT31;67861;51.966;5.672;2023-07-31T00:52:14;19.5;73.1
78571;SHT31;67861;51.966;5.672;2023-07-31T00:54:43;19.5;73.3
78571;SHT31;67861;51.966;5.672;2023-07-31T00:57:12;19.5;73.0
78571;SHT31;67861;51.966;5.672;2023-07-31T00:59:41;19.6;73.5
78571;SHT31;67861;51.966;5.672;2023-07-31T01:02:10;19.6;73.3
78571;SHT31;67861;51.966;5.672;2023-07-31T01:04:38;19.6;73.4
78571;SHT31;67861;51.966;5.672;2023-07-31T01:07:12;19.6;73.6
78571;SHT31;67861;51.966;5.672;2023-07-31T01:09:45;19.6;73.4
78571;SHT31;67861;51.966;5.672;2023-07-31T01:12:19;19.7;73.2
78571;SHT31;67861;51.966;5.672;2023-07-31T01:15:04;19.7;73.1
78571;SHT31;67861;51.966;5.672;2023-07-31T01:17:37;19.7;73.4
78571;SHT31;67861;51.966;5.672;2023-07-31T01:20:11;19.7;73.1
78571;SHT31;67861;51.966;5.672;2023-07-31T01:23:13;19.8;73.1
78571;SHT31;67861;51.966;5.672;2023-07-31T01:25:48;19.8;72.7
78571;SHT31;67861;51.966;5.672;2023-07-31T01:28:23;19.8;72.3
78571;SHT31;67861;51.966;5.672;2023-07-31T01:30:55;19.8;72.3
78571;SHT31;67861;51.966;5.672;2023-07-31T01:33:27;19.8;72.4
78571;SHT31;67861;51.966;5.672;2023-07-31T01:35:57;19.8;72.4
78571;SHT31;67861;51.966;5.672;2023-07-31T01:38:26;19.8;72.4
78571;SHT31;67861;51.966;5.672;2023-07-31T01:40:55;19.8;72.3
78571;SHT31;67861;51.966;5.672;2023-07-31T01:43:25;19.8;72.4
78571;SHT31;67861;51.966;5.672;2023-07-31T01:45:54;19.8;72.3
78571;SHT31;67861;51.966;5.672;2023-07-31T01:48:22;19.8;71.9
78571;SHT31;67861;51.966;5.672;2023-07-31T01:50:51;19.9;72.3
78571;SHT31;67861;51.966;5.672;2023-07-31T01:53:19;19.9;72.1
78571;SHT31;67861;51.966;5.672;2023-07-31T01:55:48;19.9;71.7
78571;SHT31;67861;51.966;5.672;2023-07-31T01:58:16;19.9;71.8
78571;SHT31;67861;51.966;5.672;2023-07-31T02:00:45;19.9;72.0
78571;SHT31;67861;51.966;5.672;2023-07-31T02:03:13;19.9;71.9
78571;SHT31;67861;51.966;5.672;2023-07-31T02:05:46;19.9;72.0
78571;SHT31;67861;51.966;5.672;2023-07-31T02:08:15;19.9;72.2
78571;SHT31;67861;51.966;5.672;2023-07-31T02:10:44;19.9;72.3
78571;SHT31;67861;51.966;5.672;2023-07-31T02:13:13;19.9;72.1
78571;SHT31;67861;51.966;5.672;2023-07-31T02:15:43;19.9;72.3
78571;SHT31;67861;51.966;5.672;2023-07-31T02:18:13;19.9;72.0
78571;SHT31;67861;51.966;5.672;2023-07-31T02:20:41;19.9;72.0
78571;SHT31;67861;51.966;5.672;2023-07-31T02:23:12;19.9;72.0
78571;SHT31;67861;51.966;5.672;2023-07-31T02:25:41;19.9;72.4
78571;SHT31;67861;51.966;5.672;2023-07-31T02:28:09;19.9;72.1
78571;SHT31;67861;51.966;5.672;2023-07-31T02:30:38;19.9;72.3
78571;SHT31;67861;51.966;5.672;2023-07-31T02:33:06;19.9;72.1
78571;SHT31;67861;51.966;5.672;2023-07-31T02:35:35;19.9;71.8
78571;SHT31;67861;51.966;5.672;2023-07-31T02:38:03;19.9;71.8
78571;SHT31;67861;51.966;5.672;2023-07-31T02:40:32;19.9;71.7
78571;SHT31;67861;51.966;5.672;2023-07-31T02:43:00;19.9;71.6
78571;SHT31;67861;51.966;5.672;2023-07-31T02:45:29;19.9;71.7
78571;SHT31;67861;51.966;5.672;2023-07-31T02:47:57;19.9;71.8
78571;SHT31;67861;51.966;5.672;2023-07-31T02:50:26;19.9;71.4
78571;SHT31;67861;51.966;5.672;2023-07-31T02:52:55;19.9;71.2
78571;SHT31;67861;51.966;5.672;2023-07-31T02:55:24;19.9;71.2
78571;SHT31;67861;51.966;5.672;2023-07-31T02:57:52;19.9;71.0
78571;SHT31;67861;51.966;5.672;2023-07-31T03:00:21;19.9;71.0
78571;SHT31;67861;51.966;5.672;2023-07-31T03:02:50;19.9;70.9
78571;SHT31;67861;51.966;5.672;2023-07-31T03:05:18;19.9;71.1
78571;SHT31;67861;51.966;5.672;2023-07-31T03:07:47;19.9;70.8
78571;SHT31;67861;51.966;5.672;2023-07-31T03:10:15;19.9;70.8
78571;SHT31;67861;51.966;5.672;2023-07-31T03:12:46;19.9;71.0
78571;SHT31;67861;51.966;5.672;2023-07-31T03:15:15;19.9;70.9
78571;SHT31;67861;51.966;5.672;2023-07-31T03:17:44;19.9;70.2
78571;SHT31;67861;51.966;5.672;2023-07-31T03:20:13;19.9;70.5
78571;SHT31;67861;51.966;5.672;2023-07-31T03:22:41;19.9;70.3
78571;SHT31;67861;51.966;5.672;2023-07-31T03:25:10;19.9;70.4
78571;SHT31;67861;51.966;5.672;2023-07-31T03:27:39;19.9;70.4
78571;SHT31;67861;51.966;5.672;2023-07-31T03:30:10;19.9;70.3
78571;SHT31;67861;51.966;5.672;2023-07-31T03:32:39;19.9;69.8
78571;SHT31;67861;51.966;5.672;2023-07-31T03:35:08;19.9;69.8
78571;SHT31;67861;51.966;5.672;2023-07-31T03:37:36;19.9;69.9
78571;SHT31;67861;51.966;5.672;2023-07-31T03:40:05;19.9;69.7
78571;SHT31;67861;51.966;5.672;2023-07-31T03:42:36;19.8;70.0
78571;SHT31;67861;51.966;5.672;2023-07-31T03:45:06;19.8;69.7
78571;SHT31;67861;51.966;5.672;2023-07-31T03:47:35;19.8;69.7
78571;SHT31;67861;51.966;5.672;2023-07-31T03:50:03;19.8;70.1
78571;SHT31;67861;51.966;5.672;2023-07-31T03:52:32;19.8;69.6
78571;SHT31;67861;51.966;5.672;2023-07-31T03:55:01;19.8;69.8
78571;SHT31;67861;51.966;5.672;2023-07-31T03:57:29;19.8;69.6
78571;SHT31;67861;51.966;5.672;2023-07-31T04:00:00;19.8;69.4
78571;SHT31;67861;51.966;5.672;2023-07-31T04:02:29;19.8;69.2
78571;SHT31;67861;51.966;5.672;2023-07-31T04:04:57;19.8;69.4
78571;SHT31;67861;51.966;5.672;2023-07-31T04:07:26;19.8;69.5
78571;SHT31;67861;51.966;5.672;2023-07-31T04:09:55;19.8;68.8
78571;SHT31;67861;51.966;5.672;2023-07-31T04:12:23;19.8;69.4
78571;SHT31;67861;51.966;5.672;2023-07-31T04:14:52;19.8;69.1
78571;SHT31;67861;51.966;5.672;2023-07-31T04:17:20;19.8;69.1
78571;SHT31;67861;51.966;5.672;2023-07-31T04:19:49;19.8;69.3
78571;SHT31;67861;51.966;5.672;2023-07-31T04:22:18;19.8;68.9
78571;SHT31;67861;51.966;5.672;2023-07-31T04:24:47;19.8;68.9
78571;SHT31;67861;51.966;5.672;2023-07-31T04:27:15;19.8;69.1
78571;SHT31;67861;51.966;5.672;2023-07-31T04:29:44;19.8;68.9
78571;SHT31;67861;51.966;5.672;2023-07-31T04:32:13;19.8;68.7
78571;SHT31;67861;51.966;5.672;2023-07-31T04:34:43;19.8;68.9
78571;SHT31;67861;51.966;5.672;2023-07-31T04:37:12;19.8;68.9
78571;SHT31;67861;51.966;5.672;2023-07-31T04:39:41;19.8;68.6
78571;SHT31;67861;51.966;5.672;2023-07-31T04:42:09;19.8;68.3
78571;SHT31;67861;51.966;5.672;2023-07-31T04:44:38;19.8;68.6
78571;SHT31;67861;51.966;5.672;2023-07-31T04:47:06;19.8;68.6
78571;SHT31;67861;51.966;5.672;2023-07-31T04:49:35;19.8;68.4
78571;SHT31;67861;51.966;5.672;2023-07-31T04:52:04;19.8;68.4
78571;SHT31;67861;51.966;5.672;2023-07-31T04:54:33;19.8;68.4
78571;SHT31;67861;51.966;5.672;2023-07-31T04:57:01;19.8;68.3
78571;SHT31;67861;51.966;5.672;2023-07-31T04:59:30;19.8;68.3
78571;SHT31;67861;51.966;5.672;2023-07-31T05:01:59;19.8;68.7
78571;SHT31;67861;51.966;5.672;2023-07-31T05:04:27;19.8;68.4
78571;SHT31;67861;51.966;5.672;2023-07-31T05:06:55;19.8;68.3
78571;SHT31;67861;51.966;5.672;2023-07-31T05:09:24;19.8;68.6
78571;SHT31;67861;51.966;5.672;2023-07-31T05:11:53;19.8;68.7
78571;SHT31;67861;51.966;5.672;2023-07-31T05:14:21;19.8;68.8
78571;SHT31;67861;51.966;5.672;2023-07-31T05:16:50;19.8;68.8
78571;SHT31;67861;51.966;5.672;2023-07-31T05:19:18;19.8;69.1
78571;SHT31;67861;51.966;5.672;2023-07-31T05:21:47;19.8;68.9
78571;SHT31;67861;51.966;5.672;2023-07-31T05:24:15;19.8;69.0
78571;SHT31;67861;51.966;5.672;2023-07-31T05:26:44;19.7;69.2
78571;SHT31;67861;51.966;5.672;2023-07-31T05:29:12;19.7;69.4
78571;SHT31;67861;51.966;5.672;2023-07-31T05:31:41;19.7;69.6
78571;SHT31;67861;51.966;5.672;2023-07-31T05:34:11;19.7;69.7
78571;SHT31;67861;51.966;5.672;2023-07-31T05:36:40;19.7;69.9
78571;SHT31;67861;51.966;5.672;2023-07-31T05:39:10;19.7;70.0
78571;SHT31;67861;51.966;5.672;2023-07-31T05:41:39;19.7;70.0
78571;SHT31;67861;51.966;5.672;2023-07-31T05:44:07;19.7;70.3
78571;SHT31;67861;51.966;5.672;2023-07-31T05:46:36;19.7;70.3
78571;SHT31;67861;51.966;5.672;2023-07-31T05:49:04;19.6;70.4
78571;SHT31;67861;51.966;5.672;2023-07-31T05:51:33;19.6;70.6
78571;SHT31;67861;51.966;5.672;2023-07-31T05:54:01;19.6;71.0
78571;SHT31;67861;51.966;5.672;2023-07-31T05:56:30;19.6;71.2
78571;SHT31;67861;51.966;5.672;2023-07-31T05:59:00;19.6;71.2
78571;SHT31;67861;51.966;5.672;2023-07-31T06:01:29;19.6;71.2
78571;SHT31;67861;51.966;5.672;2023-07-31T06:03:58;19.6;71.5
78571;SHT31;67861;51.966;5.672;2023-07-31T06:06:28;19.6;71.7
78571;SHT31;67861;51.966;5.672;2023-07-31T06:08:56;19.6;71.8
78571;SHT31;67861;51.966;5.672;2023-07-31T06:11:25;19.6;71.8
78571;SHT31;67861;51.966;5.672;2023-07-31T06:13:55;19.6;71.9
78571;SHT31;67861;51.966;5.672;2023-07-31T06:16:25;19.6;72.2
78571;SHT31;67861;51.966;5.672;2023-07-31T06:18:53;19.5;72.4
78571;SHT31;67861;51.966;5.672;2023-07-31T06:21:22;19.5;72.4
78571;SHT31;67861;51.966;5.672;2023-07-31T06:23:51;19.5;72.6
78571;SHT31;67861;51.966;5.672;2023-07-31T06:26:20;19.5;72.8
78571;SHT31;67861;51.966;5.672;2023-07-31T06:28:50;19.5;73.1
78571;SHT31;67861;51.966;5.672;2023-07-31T06:31:18;19.5;73.2
78571;SHT31;67861;51.966;5.672;2023-07-31T06:33:49;19.5;73.3
78571;SHT31;67861;51.966;5.672;2023-07-31T06:36:18;19.6;73.4
78571;SHT31;67861;51.966;5.672;2023-07-31T06:38:48;19.6;73.4
78571;SHT31;67861;51.966;5.672;2023-07-31T06:41:16;19.6;73.5
78571;SHT31;67861;51.966;5.672;2023-07-31T06:43:45;19.6;73.5
78571;SHT31;67861;51.966;5.672;2023-07-31T06:46:14;19.6;73.3
78571;SHT31;67861;51.966;5.672;2023-07-31T06:48:42;19.6;73.4
78571;SHT31;67861;51.966;5.672;2023-07-31T06:51:13;19.6;73.4
78571;SHT31;67861;51.966;5.672;2023-07-31T06:53:41;19.6;73.5
78571;SHT31;67861;51.966;5.672;2023-07-31T06:56:13;19.6;73.6
78571;SHT31;67861;51.966;5.672;2023-07-31T06:58:44;19.6;73.5
78571;SHT31;67861;51.966;5.672;2023-07-31T07:01:12;19.6;73.5
78571;SHT31;67861;51.966;5.672;2023-07-31T07:03:41;19.7;73.8
78571;SHT31;67861;51.966;5.672;2023-07-31T07:06:09;19.7;74.0
78571;SHT31;67861;51.966;5.672;2023-07-31T07:08:38;19.7;74.0
78571;SHT31;67861;51.966;5.672;2023-07-31T07:11:07;19.7;74.1
78571;SHT31;67861;51.966;5.672;2023-07-31T07:13:35;19.7;74.3
78571;SHT31;67861;51.966;5.672;2023-07-31T07:16:04;19.7;73.8
78571;SHT31;67861;51.966;5.672;2023-07-31T07:18:32;19.7;74.0
78571;SHT31;67861;51.966;5.672;2023-07-31T07:21:03;19.8;74.2
78571;SHT31;67861;51.966;5.672;2023-07-31T07:23:31;19.8;74.1
78571;SHT31;67861;51.966;5.672;2023-07-31T07:26:00;19.8;73.8
78571;SHT31;67861;51.966;5.672;2023-07-31T07:28:28;19.8;74.0
78571;SHT31;67861;51.966;5.672;2023-07-31T07:30:57;19.8;73.7
78571;SHT31;67861;51.966;5.672;2023-07-31T07:33:25;19.8;73.9
78571;SHT31;67861;51.966;5.672;2023-07-31T07:35:55;19.8;73.9
78571;SHT31;67861;51.966;5.672;2023-07-31T07:38:23;19.8;74.0
78571;SHT31;67861;51.966;5.672;2023-07-31T07:40:53;19.9;74.1
78571;SHT31;67861;51.966;5.672;2023-07-31T07:43:22;19.9;73.8
78571;SHT31;67861;51.966;5.672;2023-07-31T07:45:50;19.9;73.8
78571;SHT31;67861;51.966;5.672;2023-07-31T07:48:19;19.9;74.0
78571;SHT31;67861;51.966;5.672;2023-07-31T07:50:48;19.9;73.8
78571;SHT31;67861;51.966;5.672;2023-07-31T07:53:17;19.9;74.2
78571;SHT31;67861;51.966;5.672;2023-07-31T07:55:46;19.9;73.9
78571;SHT31;67861;51.966;5.672;2023-07-31T07:58:14;20.0;73.8
78571;SHT31;67861;51.966;5.672;2023-07-31T08:00:50;20.0;73.8
78571;SHT31;67861;51.966;5.672;2023-07-31T08:03:19;20.0;73.8
78571;SHT31;67861;51.966;5.672;2023-07-31T08:05:47;20.0;73.8
78571;SHT31;67861;51.966;5.672;2023-07-31T08:08:16;20.0;73.8
78571;SHT31;67861;51.966;5.672;2023-07-31T08:10:46;20.0;73.8
78571;SHT31;67861;51.966;5.672;2023-07-31T08:13:14;20.0;73.9
78571;SHT31;67861;51.966;5.672;2023-07-31T08:15:43;20.1;74.2
78571;SHT31;67861;51.966;5.672;2023-07-31T08:18:12;20.1;73.9
78571;SHT31;67861;51.966;5.672;2023-07-31T08:20:42;20.1;74.0
78571;SHT31;67861;51.966;5.672;2023-07-31T08:23:10;20.1;74.0
78571;SHT31;67861;51.966;5.672;2023-07-31T08:25:39;20.1;74.4
78571;SHT31;67861;51.966;5.672;2023-07-31T08:28:08;20.1;74.4
78571;SHT31;67861;51.966;5.672;2023-07-31T08:30:36;20.2;74.2
78571;SHT31;67861;51.966;5.672;2023-07-31T08:33:05;20.2;74.1
78571;SHT31;67861;51.966;5.672;2023-07-31T08:35:34;20.2;74.3
78571;SHT31;67861;51.966;5.672;2023-07-31T08:38:02;20.2;74.5
78571;SHT31;67861;51.966;5.672;2023-07-31T08:40:31;20.2;74.7
78571;SHT31;67861;51.966;5.672;2023-07-31T08:42:59;20.2;74.7
78571;SHT31;67861;51.966;5.672;2023-07-31T08:45:31;20.3;74.7
78571;SHT31;67861;51.966;5.672;2023-07-31T08:48:00;20.3;74.5
78571;SHT31;67861;51.966;5.672;2023-07-31T08:50:29;20.3;74.3
78571;SHT31;67861;51.966;5.672;2023-07-31T08:52:58;20.3;74.2
78571;SHT31;67861;51.966;5.672;2023-07-31T08:55:28;20.3;74.1
78571;SHT31;67861;51.966;5.672;2023-07-31T08:57:58;20.4;74.3
78571;SHT31;67861;51.966;5.672;2023-07-31T09:00:32;20.4;74.0
78571;SHT31;67861;51.966;5.672;2023-07-31T09:03:07;20.4;74.0
78571;SHT31;67861;51.966;5.672;2023-07-31T09:05:39;20.4;73.9
78571;SHT31;67861;51.966;5.672;2023-07-31T09:08:11;20.4;74.1
78571;SHT31;67861;51.966;5.672;2023-07-31T09:10:43;20.4;73.9
78571;SHT31;67861;51.966;5.672;2023-07-31T09:13:12;20.4;74.0
78571;SHT31;67861;51.966;5.672;2023-07-31T09:15:44;20.4;73.9
78571;SHT31;67861;51.966;5.672;2023-07-31T09:18:13;20.4;73.9
78571;SHT31;67861;51.966;5.672;2023-07-31T09:20:47;20.4;73.9
78571;SHT31;67861;51.966;5.672;2023-07-31T09:23:20;20.5;73.6
78571;SHT31;67861;51.966;5.672;2023-07-31T09:25:49;20.5;73.8
78571;SHT31;67861;51.966;5.672;2023-07-31T09:28:17;20.5;73.8
78571;SHT31;67861;51.966;5.672;2023-07-31T09:30:48;20.5;73.8
78571;SHT31;67861;51.966;5.672;2023-07-31T09:33:18;20.5;73.9
78571;SHT31;67861;51.966;5.672;2023-07-31T09:35:48;20.5;73.7
78571;SHT31;67861;51.966;5.672;2023-07-31T09:38:18;20.5;74.0
78571;SHT31;67861;51.966;5.672;2023-07-31T09:40:48;20.5;73.8
78571;SHT31;67861;51.966;5.672;2023-07-31T09:43:20;20.5;73.8
78571;SHT31;67861;51.966;5.672;2023-07-31T09:45:54;20.5;74.4
78571;SHT31;67861;51.966;5.672;2023-07-31T09:48:24;20.5;73.9
78571;SHT31;67861;51.966;5.672;2023-07-31T09:50:56;20.5;74.1
78571;SHT31;67861;51.966;5.672;2023-07-31T09:53:30;20.5;74.6
78571;SHT31;67861;51.966;5.672;2023-07-31T09:56:01;20.6;74.3
78571;SHT31;67861;51.966;5.672;2023-07-31T09:58:34;20.6;74.1
78571;SHT31;67861;51.966;5.672;2023-07-31T10:01:04;20.6;73.8
78571;SHT31;67861;51.966;5.672;2023-07-31T10:03:33;20.6;73.6
78571;SHT31;67861;51.966;5.672;2023-07-31T10:06:02;20.6;73.6
78571;SHT31;67861;51.966;5.672;2023-07-31T10:08:35;20.7;73.8
78571;SHT31;67861;51.966;5.672;2023-07-31T10:11:06;20.7;73.6
78571;SHT31;67861;51.966;5.672;2023-07-31T10:13:35;20.7;73.6
78571;SHT31;67861;51.966;5.672;2023-07-31T10:16:07;20.7;73.7
78571;SHT31;67861;51.966;5.672;2023-07-31T10:18:36;20.7;73.5
78571;SHT31;67861;51.966;5.672;2023-07-31T10:21:05;20.7;73.7
78571;SHT31;67861;51.966;5.672;2023-07-31T10:23:35;20.8;73.9
78571;SHT31;67861;51.966;5.672;2023-07-31T10:26:07;20.8;73.4
78571;SHT31;67861;51.966;5.672;2023-07-31T10:28:36;20.8;73.6
78571;SHT31;67861;51.966;5.672;2023-07-31T10:31:06;20.8;73.4
78571;SHT31;67861;51.966;5.672;2023-07-31T10:33:37;20.8;73.4
78571;SHT31;67861;51.966;5.672;2023-07-31T10:36:17;20.9;73.6
78571;SHT31;67861;51.966;5.672;2023-07-31T10:38:48;20.9;73.5
78571;SHT31;67861;51.966;5.672;2023-07-31T10:41:18;20.9;73.8
78571;SHT31;67861;51.966;5.672;2023-07-31T10:43:47;20.9;73.5
78571;SHT31;67861;51.966;5.672;2023-07-31T10:46:18;21.0;73.3
78571;SHT31;67861;51.966;5.672;2023-07-31T10:48:58;21.0;73.5
78571;SHT31;67861;51.966;5.672;2023-07-31T10:51:34;21.0;73.4
78571;SHT31;67861;51.966;5.672;2023-07-31T10:54:14;21.0;73.3
78571;SHT31;67861;51.966;5.672;2023-07-31T10:56:46;21.1;73.6
78571;SHT31;67861;51.966;5.672;2023-07-31T10:59:19;21.1;72.9
78571;SHT31;67861;51.966;5.672;2023-07-31T11:01:52;21.1;72.9
78571;SHT31;67861;51.966;5.672;2023-07-31T11:04:25;21.1;72.8
78571;SHT31;67861;51.966;5.672;2023-07-31T11:06:58;21.1;73.3
78571;SHT31;67861;51.966;5.672;2023-07-31T11:09:30;21.1;73.6
78571;SHT31;67861;51.966;5.672;2023-07-31T11:11:59;21.2;73.8
78571;SHT31;67861;51.966;5.672;2023-07-31T11:14:28;21.2;73.2
78571;SHT31;67861;51.966;5.672;2023-07-31T11:16:57;21.2;73.4
78571;SHT31;67861;51.966;5.672;2023-07-31T11:19:25;21.2;73.4
78571;SHT31;67861;51.966;5.672;2023-07-31T11:21:54;21.2;73.6
78571;SHT31;67861;51.966;5.672;2023-07-31T11:24:23;21.2;73.2
78571;SHT31;67861;51.966;5.672;2023-07-31T11:26:53;21.3;73.3
78571;SHT31;67861;51.966;5.672;2023-07-31T11:29:28;21.3;73.2
78571;SHT31;67861;51.966;5.672;2023-07-31T11:31:57;21.3;73.5
78571;SHT31;67861;51.966;5.672;2023-07-31T11:34:25;21.3;73.5
78571;SHT31;67861;51.966;5.672;2023-07-31T11:36:55;21.3;73.6
78571;SHT31;67861;51.966;5.672;2023-07-31T11:39:24;21.4;73.4
78571;SHT31;67861;51.966;5.672;2023-07-31T11:41:58;21.4;73.2
78571;SHT31;67861;51.966;5.672;2023-07-31T11:44:39;21.4;73.4
78571;SHT31;67861;51.966;5.672;2023-07-31T11:47:13;21.4;72.9
78571;SHT31;67861;51.966;5.672;2023-07-31T11:49:42;21.4;73.4
78571;SHT31;67861;51.966;5.672;2023-07-31T11:52:12;21.5;73.0
78571;SHT31;67861;51.966;5.672;2023-07-31T11:54:42;21.5;73.1
78571;SHT31;67861;51.966;5.672;2023-07-31T11:57:11;21.5;73.3
78571;SHT31;67861;51.966;5.672;2023-07-31T11:59:40;21.5;72.3
78571;SHT31;67861;51.966;5.672;2023-07-31T12:02:09;21.5;72.1
78571;SHT31;67861;51.966;5.672;2023-07-31T12:04:38;21.5;72.3
78571;SHT31;67861;51.966;5.672;2023-07-31T12:07:07;21.5;72.3
78571;SHT31;67861;51.966;5.672;2023-07-31T12:09:36;21.6;72.6
78571;SHT31;67861;51.966;5.672;2023-07-31T12:12:08;21.6;72.3
78571;SHT31;67861;51.966;5.672;2023-07-31T12:14:41;21.6;72.5
78571;SHT31;67861;51.966;5.672;2023-07-31T12:17:10;21.6;72.3
78571;SHT31;67861;51.966;5.672;2023-07-31T12:19:41;21.6;71.8
78571;SHT31;67861;51.966;5.672;2023-07-31T12:22:14;21.6;71.9
78571;SHT31;67861;51.966;5.672;2023-07-31T12:24:44;21.6;71.8
78571;SHT31;67861;51.966;5.672;2023-07-31T12:27:14;21.6;71.7
78571;SHT31;67861;51.966;5.672;2023-07-31T12:29:45;21.6;71.8
78571;SHT31;67861;51.966;5.672;2023-07-31T12:32:23;21.6;71.9
78571;SHT31;67861;51.966;5.672;2023-07-31T12:35:01;21.6;72.1
78571;SHT31;67861;51.966;5.672;2023-07-31T12:37:30;21.6;72.3
78571;SHT31;67861;51.966;5.672;2023-07-31T12:39:59;21.6;72.2
78571;SHT31;67861;51.966;5.672;2023-07-31T12:42:32;21.6;72.4
78571;SHT31;67861;51.966;5.672;2023-07-31T12:45:01;21.7;72.8
78571;SHT31;67861;51.966;5.672;2023-07-31T12:47:30;21.7;73.3
78571;SHT31;67861;51.966;5.672;2023-07-31T12:49:58;21.7;73.4
78571;SHT31;67861;51.966;5.672;2023-07-31T12:52:27;21.7;73.4
78571;SHT31;67861;51.966;5.672;2023-07-31T12:54:55;21.7;73.4
78571;SHT31;67861;51.966;5.672;2023-07-31T12:57:24;21.7;73.1
78571;SHT31;67861;51.966;5.672;2023-07-31T12:59:52;21.7;73.1
78571;SHT31;67861;51.966;5.672;2023-07-31T13:02:21;21.8;73.3
78571;SHT31;67861;51.966;5.672;2023-07-31T13:04:50;21.8;72.3
78571;SHT31;67861;51.966;5.672;2023-07-31T13:07:21;21.8;72.2
78571;SHT31;67861;51.966;5.672;2023-07-31T13:09:50;21.8;72.0
78571;SHT31;67861;51.966;5.672;2023-07-31T13:12:19;21.8;71.9
78571;SHT31;67861;51.966;5.672;2023-07-31T13:14:47;21.8;71.8
78571;SHT31;67861;51.966;5.672;2023-07-31T13:17:16;21.8;72.0
78571;SHT31;67861;51.966;5.672;2023-07-31T13:19:44;21.8;71.8
78571;SHT31;67861;51.966;5.672;2023-07-31T13:22:13;21.8;71.6
78571;SHT31;67861;51.966;5.672;2023-07-31T13:24:42;21.8;71.9
78571;SHT31;67861;51.966;5.672;2023-07-31T13:27:10;21.8;71.9
78571;SHT31;67861;51.966;5.672;2023-07-31T13:29:39;21.8;72.3
78571;SHT31;67861;51.966;5.672;2023-07-31T13:32:08;21.8;71.8
78571;SHT31;67861;51.966;5.672;2023-07-31T13:34:36;21.8;71.7
78571;SHT31;67861;51.966;5.672;2023-07-31T13:37:05;21.8;71.9
78571;SHT31;67861;51.966;5.672;2023-07-31T13:39:34;21.8;72.0
78571;SHT31;67861;51.966;5.672;2023-07-31T13:42:04;21.8;71.9
78571;SHT31;67861;51.966;5.672;2023-07-31T13:44:34;21.8;71.8
78571;SHT31;67861;51.966;5.672;2023-07-31T13:47:03;21.8;71.8
78571;SHT31;67861;51.966;5.672;2023-07-31T13:49:32;21.8;71.8
78571;SHT31;67861;51.966;5.672;2023-07-31T13:52:02;21.8;72.0
78571;SHT31;67861;51.966;5.672;2023-07-31T13:54:31;21.8;72.0
78571;SHT31;67861;51.966;5.672;2023-07-31T13:57:00;21.8;72.1
78571;SHT31;67861;51.966;5.672;2023-07-31T13:59:28;21.8;72.1
78571;SHT31;67861;51.966;5.672;2023-07-31T14:01:57;21.8;72.2
78571;SHT31;67861;51.966;5.672;2023-07-31T14:04:25;21.8;72.0
78571;SHT31;67861;51.966;5.672;2023-07-31T14:06:55;21.8;72.3
78571;SHT31;67861;51.966;5.672;2023-07-31T14:09:24;21.8;72.3
78571;SHT31;67861;51.966;5.672;2023-07-31T14:11:53;21.8;72.2
78571;SHT31;67861;51.966;5.672;2023-07-31T14:14:21;21.8;72.6
78571;SHT31;67861;51.966;5.672;2023-07-31T14:16:50;21.8;72.2
78571;SHT31;67861;51.966;5.672;2023-07-31T14:19:18;21.8;72.2
78571;SHT31;67861;51.966;5.672;2023-07-31T14:21:47;21.8;72.6
78571;SHT31;67861;51.966;5.672;2023-07-31T14:24:15;21.8;72.5
78571;SHT31;67861;51.966;5.672;2023-07-31T14:26:44;21.8;72.3
78571;SHT31;67861;51.966;5.672;2023-07-31T14:29:12;21.8;72.2
78571;SHT31;67861;51.966;5.672;2023-07-31T14:31:41;21.8;72.6
78571;SHT31;67861;51.966;5.672;2023-07-31T14:34:09;21.8;72.8
78571;SHT31;67861;51.966;5.672;2023-07-31T14:36:38;21.8;72.4
78571;SHT31;67861;51.966;5.672;2023-07-31T14:39:06;21.8;72.6
78571;SHT31;67861;51.966;5.672;2023-07-31T14:41:35;21.8;72.5
78571;SHT31;67861;51.966;5.672;2023-07-31T14:44:04;21.8;72.6
78571;SHT31;67861;51.966;5.672;2023-07-31T14:46:32;21.7;72.7
78571;SHT31;67861;51.966;5.672;2023-07-31T14:49:00;21.8;72.7
78571;SHT31;67861;51.966;5.672;2023-07-31T14:51:29;21.7;72.6
78571;SHT31;67861;51.966;5.672;2023-07-31T14:53:58;21.7;72.6
78571;SHT31;67861;51.966;5.672;2023-07-31T14:56:26;21.8;71.9
78571;SHT31;67861;51.966;5.672;2023-07-31T14:58:55;21.7;72.1
78571;SHT31;67861;51.966;5.672;2023-07-31T15:01:23;21.7;72.3
78571;SHT31;67861;51.966;5.672;2023-07-31T15:03:52;21.7;72.4
78571;SHT31;67861;51.966;5.672;2023-07-31T15:06:21;21.7;72.6
78571;SHT31;67861;51.966;5.672;2023-07-31T15:08:49;21.7;72.6
78571;SHT31;67861;51.966;5.672;2023-07-31T15:11:18;21.7;72.6
78571;SHT31;67861;51.966;5.672;2023-07-31T15:13:46;21.7;72.8
78571;SHT31;67861;51.966;5.672;2023-07-31T15:16:15;21.7;72.5
78571;SHT31;67861;51.966;5.672;2023-07-31T15:18:43;21.7;72.7
78571;SHT31;67861;51.966;5.672;2023-07-31T15:21:12;21.7;72.4
78571;SHT31;67861;51.966;5.672;2023-07-31T15:23:40;21.7;72.2
78571;SHT31;67861;51.966;5.672;2023-07-31T15:26:09;21.7;72.6
78571;SHT31;67861;51.966;5.672;2023-07-31T15:28:37;21.7;72.7
78571;SHT31;67861;51.966;5.672;2023-07-31T15:31:06;21.7;72.5
78571;SHT31;67861;51.966;5.672;2023-07-31T15:33:35;21.7;72.6
78571;SHT31;67861;51.966;5.672;2023-07-31T15:36:04;21.7;72.4
78571;SHT31;67861;51.966;5.672;2023-07-31T15:38:32;21.7;72.4
78571;SHT31;67861;51.966;5.672;2023-07-31T15:41:01;21.7;72.2
78571;SHT31;67861;51.966;5.672;2023-07-31T15:43:31;21.7;72.5
78571;SHT31;67861;51.966;5.672;2023-07-31T15:46:00;21.7;72.6
78571;SHT31;67861;51.966;5.672;2023-07-31T15:48:29;21.7;72.7
78571;SHT31;67861;51.966;5.672;2023-07-31T15:50:57;21.7;72.7
78571;SHT31;67861;51.966;5.672;2023-07-31T15:53:27;21.7;72.8
78571;SHT31;67861;51.966;5.672;2023-07-31T15:55:56;21.7;72.7
78571;SHT31;67861;51.966;5.672;2023-07-31T15:58:24;21.7;72.9
78571;SHT31;67861;51.966;5.672;2023-07-31T16:00:53;21.7;72.4
78571;SHT31;67861;51.966;5.672;2023-07-31T16:03:22;21.7;72.3
78571;SHT31;67861;51.966;5.672;2023-07-31T16:05:50;21.6;72.4
78571;SHT31;67861;51.966;5.672;2023-07-31T16:08:19;21.6;72.6
78571;SHT31;67861;51.966;5.672;2023-07-31T16:10:48;21.6;72.6
78571;SHT31;67861;51.966;5.672;2023-07-31T16:13:17;21.6;72.6
78571;SHT31;67861;51.966;5.672;2023-07-31T16:15:47;21.6;72.7